createdAt,value
2022-12-03T00:01:59.686Z,89.33
2022-12-03T00:04:26.962Z,90.33
2022-12-03T00:06:54.040Z,91.46
2022-12-03T00:09:21.247Z,90.08
2022-12-03T00:11:48.360Z,89.52
2022-12-03T00:14:15.508Z,90.73
2022-12-03T00:16:42.544Z,90.02
2022-12-03T00:19:09.592Z,89.60
2022-12-03T00:21:36.650Z,90.25
2022-12-03T00:24:03.800Z,90.07
2022-12-03T00:26:30.908Z,89.91
2022-12-03T00:28:58.162Z,92.20
2022-12-03T00:31:26.198Z,90.94
2022-12-03T00:33:53.789Z,90.67
2022-12-03T00:36:21.163Z,91.22
2022-12-03T00:38:48.387Z,90.25
2022-12-03T00:41:15.489Z,91.61
2022-12-03T00:43:42.569Z,91.48
2022-12-03T00:46:09.953Z,91.29
2022-12-03T00:48:37.070Z,91.84
2022-12-03T00:51:04.329Z,90.67
2022-12-03T00:53:31.452Z,91.96
2022-12-03T00:55:58.567Z,92.19
2022-12-03T00:58:25.755Z,91.01
2022-12-03T01:00:52.805Z,90.21
2022-12-03T01:03:19.913Z,92.62
2022-12-03T01:05:47.090Z,91.90
2022-12-03T01:08:14.331Z,90.43
2022-12-03T01:10:41.510Z,91.29
2022-12-03T01:13:08.568Z,92.27
2022-12-03T01:15:35.712Z,91.58
2022-12-03T01:18:02.880Z,92.03
2022-12-03T01:20:29.996Z,91.17
2022-12-03T01:22:57.109Z,91.67
2022-12-03T01:25:24.198Z,91.59
2022-12-03T01:27:51.263Z,91.22
2022-12-03T01:30:18.379Z,91.38
2022-12-03T01:32:45.511Z,91.77
2022-12-03T01:35:12.596Z,90.85
2022-12-03T01:37:39.777Z,90.32
2022-12-03T01:40:09.215Z,91.29
2022-12-03T01:42:40.527Z,90.63
2022-12-03T01:45:15.239Z,91.85
2022-12-03T01:47:42.365Z,91.45
2022-12-03T01:50:22.238Z,91.57
2022-12-03T01:52:49.532Z,91.00
2022-12-03T01:55:22.688Z,92.51
2022-12-03T01:57:57.389Z,91.05
2022-12-03T02:00:29.263Z,92.67
2022-12-03T02:03:06.840Z,92.04
2022-12-03T02:05:34.748Z,90.86
2022-12-03T02:08:02.336Z,90.75
2022-12-03T02:10:36.819Z,91.14
2022-12-03T02:13:08.583Z,90.84
2022-12-03T02:15:38.075Z,91.83
2022-12-03T02:18:05.631Z,92.97
2022-12-03T02:20:48.694Z,90.84
2022-12-03T02:24:09.413Z,91.55
2022-12-03T02:26:36.600Z,91.18
2022-12-03T02:29:03.811Z,91.44
2022-12-03T02:31:31.299Z,91.00
2022-12-03T02:33:58.455Z,90.59
2022-12-03T02:36:25.839Z,92.76
2022-12-03T02:38:53.152Z,91.88
2022-12-03T02:41:40.848Z,91.03
2022-12-03T02:44:08.940Z,91.80
2022-12-03T02:46:36.763Z,91.80
2022-12-03T02:49:06.114Z,91.67
2022-12-03T02:51:35.163Z,90.72
2022-12-03T02:54:03.518Z,91.66
2022-12-03T02:56:32.913Z,91.18
2022-12-03T02:59:03.825Z,91.75
2022-12-03T03:01:31.416Z,92.73
2022-12-03T03:03:59.579Z,92.91
2022-12-03T03:06:27.204Z,92.40
2022-12-03T03:08:54.435Z,92.04
2022-12-03T03:11:21.616Z,90.56
2022-12-03T03:13:48.804Z,90.06
2022-12-03T03:16:15.976Z,90.71
2022-12-03T03:18:43.080Z,90.88
2022-12-03T03:21:10.439Z,90.86
2022-12-03T03:23:37.538Z,90.36
2022-12-03T03:26:14.085Z,91.30
2022-12-03T03:28:47.804Z,91.75
2022-12-03T03:31:18.647Z,90.67
2022-12-03T03:33:50.023Z,91.98
2022-12-03T03:36:17.916Z,91.21
2022-12-03T03:38:45.035Z,90.81
2022-12-03T03:41:13.361Z,90.44
2022-12-03T03:43:43.233Z,90.95
2022-12-03T03:46:11.592Z,91.48
2022-12-03T03:48:41.253Z,90.90
2022-12-03T03:51:09.514Z,90.81
2022-12-03T03:53:49.925Z,90.38
2022-12-03T03:56:19.770Z,90.85
2022-12-03T03:58:47.050Z,90.42
2022-12-03T04:01:15.282Z,90.90
2022-12-03T04:03:42.621Z,91.71
2022-12-03T04:06:10.346Z,91.43
2022-12-03T04:08:37.392Z,90.54
2022-12-03T04:11:23.297Z,92.60
2022-12-03T04:13:50.400Z,90.80
2022-12-03T04:16:17.532Z,90.43
2022-12-03T04:18:44.719Z,90.54
2022-12-03T04:21:38.722Z,90.13
2022-12-03T04:24:07.967Z,90.28
2022-12-03T04:26:54.511Z,90.66
2022-12-03T04:29:22.229Z,90.41
2022-12-03T04:32:08.342Z,90.17
2022-12-03T04:34:54.655Z,91.53
2022-12-03T04:37:21.972Z,89.84
2022-12-03T04:39:49.059Z,89.80
2022-12-03T04:42:16.172Z,90.53
2022-12-03T04:44:43.333Z,89.93
2022-12-03T04:47:14.573Z,90.10
2022-12-03T04:49:45.812Z,90.49
2022-12-03T04:52:15.297Z,90.04
2022-12-03T04:54:42.867Z,90.12
2022-12-03T04:57:11.227Z,91.11
2022-12-03T04:59:39.140Z,90.57
2022-12-03T05:02:07.679Z,89.50
2022-12-03T05:04:35.170Z,90.22
2022-12-03T05:07:02.824Z,90.62
2022-12-03T05:09:30.090Z,90.03
2022-12-03T05:11:57.188Z,90.68
2022-12-03T05:14:24.416Z,89.86
2022-12-03T05:16:51.582Z,90.66
2022-12-03T05:19:18.743Z,90.87
2022-12-03T05:21:45.858Z,91.99
2022-12-03T05:24:13.733Z,90.42
2022-12-03T05:26:40.790Z,90.55
2022-12-03T05:29:07.983Z,92.66
2022-12-03T05:31:35.044Z,90.53
2022-12-03T05:34:02.178Z,90.89
2022-12-03T05:36:29.318Z,92.02
2022-12-03T05:38:56.371Z,92.49
2022-12-03T05:41:41.954Z,91.41
2022-12-03T05:44:09.052Z,91.04
2022-12-03T05:46:36.244Z,90.65
2022-12-03T05:49:03.417Z,91.90
2022-12-03T05:51:30.525Z,91.48
2022-12-03T05:53:57.572Z,90.63
2022-12-03T05:56:24.697Z,90.67
2022-12-03T05:58:51.763Z,90.47
2022-12-03T06:01:18.862Z,90.85
2022-12-03T06:03:46.050Z,90.97
2022-12-03T06:06:13.295Z,90.95
2022-12-03T06:08:40.414Z,90.94
2022-12-03T06:11:07.479Z,90.66
2022-12-03T06:13:34.571Z,90.18
2022-12-03T06:16:01.765Z,90.28
2022-12-03T06:18:28.958Z,90.42
2022-12-03T06:20:56.076Z,90.00
2022-12-03T06:23:23.123Z,91.34
2022-12-03T06:25:51.166Z,90.63
2022-12-03T06:28:18.231Z,90.62
2022-12-03T06:30:45.440Z,90.21
2022-12-03T06:33:12.583Z,90.16
2022-12-03T06:35:39.647Z,90.94
2022-12-03T06:38:06.718Z,90.52
2022-12-03T06:40:33.803Z,91.06
2022-12-03T06:43:00.926Z,89.80
2022-12-03T06:45:28.022Z,90.33
2022-12-03T06:47:55.140Z,89.91
2022-12-03T06:50:22.287Z,89.97
2022-12-03T06:53:14.368Z,89.65
2022-12-03T06:55:41.413Z,90.39
2022-12-03T06:58:08.504Z,89.89
2022-12-03T07:00:35.627Z,89.65
2022-12-03T07:03:03.020Z,89.96
2022-12-03T07:05:30.206Z,90.11
2022-12-03T07:07:57.322Z,89.79
2022-12-03T07:10:24.484Z,88.68
2022-12-03T07:12:51.593Z,90.05
2022-12-03T07:15:18.678Z,88.95
2022-12-03T07:17:45.745Z,88.88
2022-12-03T07:20:15.259Z,89.06
2022-12-03T07:22:42.369Z,88.82
2022-12-03T07:25:10.043Z,89.83
2022-12-03T07:27:37.108Z,88.96
2022-12-03T07:30:06.312Z,89.34
2022-12-03T07:32:33.393Z,89.81
2022-12-03T07:35:01.071Z,88.73
2022-12-03T07:37:28.131Z,89.23
2022-12-03T07:39:55.214Z,88.96
2022-12-03T07:42:22.326Z,90.34
2022-12-03T07:44:49.607Z,90.16
2022-12-03T07:47:16.957Z,89.21
2022-12-03T07:49:44.342Z,90.16
2022-12-03T07:52:11.401Z,89.69
2022-12-03T07:54:38.570Z,90.25
2022-12-03T07:57:05.714Z,89.51
2022-12-03T07:59:32.848Z,89.64
2022-12-03T08:02:00.128Z,89.50
2022-12-03T08:04:27.272Z,90.32
2022-12-03T08:06:54.637Z,91.26
2022-12-03T08:09:22.408Z,89.60
2022-12-03T08:11:50.361Z,90.19
2022-12-03T08:14:20.851Z,90.44
2022-12-03T08:16:48.802Z,89.76
2022-12-03T08:19:17.800Z,89.38
2022-12-03T08:21:45.403Z,89.91
2022-12-03T08:24:20.787Z,90.94
2022-12-03T08:26:49.542Z,90.00
2022-12-03T08:29:19.630Z,89.21
2022-12-03T08:31:52.071Z,89.69
2022-12-03T08:34:29.545Z,88.93
2022-12-03T08:37:02.101Z,89.42
2022-12-03T08:39:35.739Z,90.19
2022-12-03T08:42:39.185Z,89.68
2022-12-03T08:45:39.404Z,90.12
2022-12-03T08:48:29.699Z,90.04
2022-12-03T08:51:17.418Z,89.63
2022-12-03T08:53:48.556Z,89.20
2022-12-03T08:56:27.038Z,89.64
2022-12-03T08:59:24.888Z,89.83
2022-12-03T09:01:53.462Z,90.12
2022-12-03T09:04:44.827Z,90.54
2022-12-03T09:07:11.930Z,89.99
2022-12-03T09:09:39.149Z,89.76
2022-12-03T09:12:06.514Z,90.57
2022-12-03T09:14:33.659Z,90.26
2022-12-03T09:17:00.899Z,89.45
2022-12-03T09:19:30.997Z,88.95
2022-12-03T09:21:58.229Z,90.01
2022-12-03T09:24:25.497Z,89.63
2022-12-03T09:26:52.810Z,89.43
2022-12-03T09:29:20.066Z,90.16
2022-12-03T09:31:47.365Z,90.15
2022-12-03T09:34:14.591Z,91.24
2022-12-03T09:36:41.792Z,91.76
2022-12-03T09:39:08.874Z,89.86
2022-12-03T09:41:36.317Z,90.37
2022-12-03T09:44:04.914Z,89.62
2022-12-03T09:46:35.145Z,89.61
2022-12-03T09:49:03.784Z,89.84
2022-12-03T09:51:34.889Z,88.67
2022-12-03T09:54:05.786Z,88.91
2022-12-03T09:56:38.058Z,87.99
2022-12-03T09:59:16.212Z,88.24
2022-12-03T10:01:43.562Z,87.92
2022-12-03T10:04:11.294Z,87.87
2022-12-03T10:06:45.259Z,87.71
2022-12-03T10:09:17.609Z,87.68
2022-12-03T10:11:45.019Z,87.84
2022-12-03T10:14:15.010Z,87.71
2022-12-03T10:16:42.449Z,87.84
2022-12-03T10:19:25.361Z,87.62
2022-12-03T10:21:52.717Z,88.04
2022-12-03T10:24:29.771Z,87.70
2022-12-03T10:27:21.977Z,87.92
2022-12-03T10:30:01.350Z,88.26
2022-12-03T10:32:42.882Z,89.75
2022-12-03T10:35:16.272Z,89.59
2022-12-03T10:38:07.170Z,88.85
2022-12-03T10:40:38.392Z,89.38
2022-12-03T10:43:24.502Z,89.22
2022-12-03T10:46:14.182Z,88.71
2022-12-03T10:48:41.344Z,88.50
2022-12-03T10:51:21.164Z,88.37
2022-12-03T10:53:50.130Z,88.50
2022-12-03T10:56:27.404Z,88.75
2022-12-03T10:58:54.942Z,88.38
2022-12-03T11:01:25.371Z,88.00
2022-12-03T11:04:03.138Z,87.67
2022-12-03T11:06:32.979Z,87.41
2022-12-03T11:09:06.906Z,88.71
2022-12-03T11:11:35.811Z,88.13
2022-12-03T11:14:04.857Z,88.39
2022-12-03T11:16:41.058Z,87.41
2022-12-03T11:19:17.766Z,88.12
2022-12-03T11:22:06.472Z,87.72
2022-12-03T11:24:36.380Z,87.07
2022-12-03T11:27:03.431Z,87.83
2022-12-03T11:29:54.365Z,87.60
2022-12-03T11:32:42.628Z,87.53
2022-12-03T11:35:24.957Z,89.54
2022-12-03T11:37:52.227Z,87.54
2022-12-03T11:40:19.265Z,88.73
2022-12-03T11:42:48.946Z,87.83
2022-12-03T11:45:32.987Z,87.19
2022-12-03T11:48:01.668Z,87.91
2022-12-03T11:50:42.880Z,87.86
2022-12-03T11:53:25.974Z,87.26
2022-12-03T11:56:10.920Z,87.86
2022-12-03T11:58:43.057Z,88.06
2022-12-03T12:01:10.321Z,87.20
2022-12-03T12:03:49.820Z,86.52
2022-12-03T12:06:21.043Z,86.98
2022-12-03T12:08:51.337Z,86.71
2022-12-03T12:11:31.911Z,87.29
2022-12-03T12:14:07.643Z,86.78
2022-12-03T12:16:41.107Z,86.80
2022-12-03T12:19:38.659Z,87.62
2022-12-03T12:22:26.646Z,88.08
2022-12-03T12:25:25.982Z,87.85
2022-12-03T12:27:55.025Z,88.04
2022-12-03T12:30:23.355Z,87.59
2022-12-03T12:33:10.042Z,87.28
2022-12-03T12:35:37.272Z,88.82
2022-12-03T12:38:07.260Z,87.25
2022-12-03T12:40:41.154Z,88.14
2022-12-03T12:43:14.412Z,86.46
2022-12-03T12:45:44.274Z,88.50
2022-12-03T12:48:24.456Z,86.18
2022-12-03T12:51:05.741Z,87.35
2022-12-03T12:53:35.883Z,87.50
2022-12-03T12:56:23.667Z,87.69
2022-12-03T12:58:51.530Z,87.02
2022-12-03T13:01:27.524Z,87.85
2022-12-03T13:03:54.863Z,87.89
2022-12-03T13:06:27.849Z,87.52
2022-12-03T13:08:55.534Z,87.48
2022-12-03T13:11:28.369Z,87.57
2022-12-03T13:14:21.426Z,88.11
2022-12-03T13:16:51.657Z,89.53
2022-12-03T13:19:24.933Z,88.11
2022-12-03T13:22:16.859Z,88.72
2022-12-03T13:24:48.015Z,87.64
2022-12-03T13:27:17.825Z,89.21
2022-12-03T13:30:00.980Z,89.03
2022-12-03T13:32:33.680Z,89.04
2022-12-03T13:35:17.415Z,88.19
2022-12-03T13:37:45.330Z,88.72
2022-12-03T13:40:27.760Z,89.58
2022-12-03T13:42:55.104Z,89.56
2022-12-03T13:45:35.605Z,88.36
2022-12-03T13:48:24.303Z,89.06
2022-12-03T13:50:52.807Z,88.96
2022-12-03T13:53:26.952Z,89.75
2022-12-03T13:56:25.674Z,89.65
2022-12-03T13:58:52.833Z,89.41
2022-12-03T14:01:19.954Z,89.79
2022-12-03T14:03:47.163Z,89.46
2022-12-03T14:06:14.434Z,89.60
2022-12-03T14:08:41.483Z,90.07
2022-12-03T14:11:08.687Z,90.26
2022-12-03T14:13:35.754Z,89.38
2022-12-03T14:16:02.913Z,89.82
2022-12-03T14:18:30.067Z,90.03
2022-12-03T14:20:57.172Z,89.75
2022-12-03T14:23:24.306Z,89.15
2022-12-03T14:25:51.482Z,89.26
2022-12-03T14:28:18.622Z,89.75
2022-12-03T14:30:45.667Z,90.27
2022-12-03T14:33:12.791Z,90.45
2022-12-03T14:35:39.899Z,88.96
2022-12-03T14:38:07.000Z,88.52
2022-12-03T14:40:34.556Z,88.43
2022-12-03T14:43:01.650Z,88.58
2022-12-03T14:45:29.823Z,89.25
2022-12-03T14:47:56.989Z,88.74
2022-12-03T14:50:25.905Z,88.74
2022-12-03T14:52:53.083Z,89.10
2022-12-03T14:55:20.199Z,87.90
2022-12-03T14:57:47.300Z,87.55
2022-12-03T15:00:15.240Z,88.83
2022-12-03T15:02:42.401Z,88.66
2022-12-03T15:05:09.755Z,89.21
2022-12-03T15:07:39.255Z,89.20
2022-12-03T15:10:08.050Z,89.02
2022-12-03T15:12:35.218Z,88.36
2022-12-03T15:15:02.313Z,88.27
2022-12-03T15:17:31.965Z,88.04
2022-12-03T15:19:59.516Z,88.54
2022-12-03T15:22:26.634Z,88.09
2022-12-03T15:24:53.704Z,88.82
2022-12-03T15:27:20.753Z,88.35
2022-12-03T15:29:47.906Z,87.83
2022-12-03T15:32:15.075Z,87.51
2022-12-03T15:34:42.197Z,88.70
2022-12-03T15:37:09.321Z,88.29
2022-12-03T15:39:37.543Z,87.86
2022-12-03T15:42:04.710Z,88.42
2022-12-03T15:44:31.802Z,88.95
2022-12-03T15:46:58.915Z,89.42
2022-12-03T15:49:26.039Z,88.21
2022-12-03T15:51:53.946Z,88.26
2022-12-03T15:54:21.041Z,87.82
2022-12-03T15:56:51.486Z,88.90
2022-12-03T15:59:21.267Z,89.39
2022-12-03T16:01:48.382Z,88.63
2022-12-03T16:04:15.567Z,88.75
2022-12-03T16:06:42.633Z,89.01
2022-12-03T16:09:10.374Z,88.67
2022-12-03T16:11:37.478Z,89.54
2022-12-03T16:14:04.565Z,90.11
2022-12-03T16:16:31.766Z,88.86
2022-12-03T16:18:58.868Z,88.88
2022-12-03T16:21:27.178Z,88.26
2022-12-03T16:23:55.332Z,90.19
2022-12-03T16:26:22.818Z,89.94
2022-12-03T16:28:50.056Z,88.74
2022-12-03T16:31:18.959Z,89.47
2022-12-03T16:33:46.262Z,88.82
2022-12-03T16:36:13.601Z,89.47
2022-12-03T16:38:40.742Z,88.97
2022-12-03T16:41:07.874Z,90.08
2022-12-03T16:43:38.505Z,89.20
2022-12-03T16:46:20.878Z,88.77
2022-12-03T16:48:48.696Z,89.27
2022-12-03T16:51:16.583Z,89.71
2022-12-03T16:53:43.726Z,89.91
2022-12-03T16:56:10.828Z,89.37
2022-12-03T16:58:37.942Z,88.94
2022-12-03T17:01:05.499Z,89.81
2022-12-03T17:03:34.269Z,88.60
2022-12-03T17:06:02.214Z,89.98
2022-12-03T17:08:29.656Z,89.32
2022-12-03T17:10:57.083Z,89.50
2022-12-03T17:13:24.536Z,88.51
2022-12-03T17:15:51.726Z,89.61
2022-12-03T17:18:18.883Z,89.72
2022-12-03T17:20:45.992Z,89.54
2022-12-03T17:23:13.282Z,88.98
2022-12-03T17:25:40.405Z,88.74
2022-12-03T17:28:07.493Z,89.48
2022-12-03T17:30:34.596Z,90.13
2022-12-03T17:33:01.723Z,88.85
2022-12-03T17:35:28.830Z,89.25
2022-12-03T17:37:56.022Z,89.78
2022-12-03T17:40:23.328Z,89.96
2022-12-03T17:42:50.442Z,90.71
2022-12-03T17:45:17.534Z,89.90
2022-12-03T17:47:44.681Z,89.22
2022-12-03T17:50:12.345Z,89.12
2022-12-03T17:52:39.444Z,90.50
2022-12-03T17:55:13.161Z,89.61
2022-12-03T17:57:41.555Z,89.33
2022-12-03T18:00:10.297Z,89.44
2022-12-03T18:02:42.303Z,88.94
2022-12-03T18:05:09.790Z,89.31
2022-12-03T18:07:36.920Z,89.10
2022-12-03T18:10:05.173Z,89.16
2022-12-03T18:12:32.430Z,89.92
2022-12-03T18:14:59.564Z,88.74
2022-12-03T18:17:26.672Z,89.28
2022-12-03T18:19:54.249Z,89.25
2022-12-03T18:22:21.687Z,90.27
2022-12-03T18:24:51.852Z,89.46
2022-12-03T18:27:21.145Z,90.75
2022-12-03T18:29:48.803Z,88.61
2022-12-03T18:32:28.295Z,89.69
2022-12-03T18:34:57.325Z,89.24
2022-12-03T18:37:28.509Z,91.04
2022-12-03T18:39:56.759Z,89.42
2022-12-03T18:42:24.467Z,89.39
2022-12-03T18:44:54.651Z,90.00
2022-12-03T18:47:26.253Z,89.28
2022-12-03T18:49:53.987Z,90.24
2022-12-03T18:52:23.693Z,88.88
2022-12-03T18:54:50.957Z,88.79
2022-12-03T18:57:18.130Z,89.83
2022-12-03T18:59:45.318Z,89.26
2022-12-03T19:02:45.953Z,88.70
2022-12-03T19:05:07.014Z,88.43
2022-12-03T19:07:34.136Z,88.77
2022-12-03T19:10:01.257Z,89.03
2022-12-03T19:12:28.379Z,88.78
2022-12-03T19:14:55.475Z,88.56
2022-12-03T19:17:22.551Z,89.03
2022-12-03T19:19:49.810Z,88.92
2022-12-03T19:22:16.871Z,88.20
2022-12-03T19:24:44.017Z,88.98
2022-12-03T19:27:11.163Z,89.11
2022-12-03T19:29:38.298Z,88.24
2022-12-03T19:32:05.630Z,88.83
2022-12-03T19:34:32.858Z,88.58
2022-12-03T19:36:59.901Z,88.62
2022-12-03T19:39:27.019Z,88.21
2022-12-03T19:41:54.083Z,87.80
2022-12-03T19:44:21.247Z,87.43
2022-12-03T19:46:50.760Z,87.70
2022-12-03T19:49:20.732Z,88.61
2022-12-03T19:51:48.341Z,87.83
2022-12-03T19:54:15.801Z,89.53
2022-12-03T19:56:43.925Z,88.49
2022-12-03T19:59:12.845Z,88.11
2022-12-03T20:01:42.780Z,87.76
2022-12-03T20:04:12.595Z,88.51
2022-12-03T20:06:40.970Z,87.56
2022-12-03T20:09:17.141Z,87.56
2022-12-03T20:11:45.807Z,88.40
2022-12-03T20:14:16.076Z,89.19
2022-12-03T20:16:44.861Z,89.26
2022-12-03T20:19:15.949Z,88.53
2022-12-03T20:21:44.258Z,88.06
2022-12-03T20:24:16.570Z,87.41
2022-12-03T20:26:44.231Z,89.18
2022-12-03T20:29:11.831Z,88.02
2022-12-03T20:31:38.994Z,88.67
2022-12-03T20:34:07.097Z,89.38
2022-12-03T20:36:34.352Z,89.62
2022-12-03T20:39:06.855Z,88.41
2022-12-03T20:41:37.578Z,88.46
2022-12-03T20:44:07.379Z,88.72
2022-12-03T20:46:35.221Z,87.96
2022-12-03T20:49:02.455Z,88.19
2022-12-03T20:51:33.652Z,87.38
2022-12-03T20:54:01.874Z,88.17
2022-12-03T20:56:36.303Z,88.19
2022-12-03T20:59:06.808Z,88.65
2022-12-03T21:01:35.766Z,88.77
2022-12-03T21:04:04.566Z,88.70
2022-12-03T21:06:34.911Z,89.01
2022-12-03T21:09:05.012Z,89.14
2022-12-03T21:11:35.530Z,88.60
2022-12-03T21:14:04.031Z,88.34
2022-12-03T21:17:06.107Z,88.69
2022-12-03T21:19:23.142Z,88.22
2022-12-03T21:21:50.402Z,88.07
2022-12-03T21:24:17.545Z,89.19
2022-12-03T21:26:44.622Z,87.77
2022-12-03T21:29:14.690Z,87.96
2022-12-03T21:31:41.806Z,88.89
2022-12-03T21:34:08.970Z,88.65
2022-12-03T21:36:36.125Z,88.30
2022-12-03T21:39:03.829Z,89.05
2022-12-03T21:41:31.822Z,90.54
2022-12-03T21:43:59.366Z,88.64
2022-12-03T21:47:09.746Z,88.82
2022-12-03T21:49:14.401Z,89.83
2022-12-03T21:51:41.455Z,89.09
2022-12-03T21:54:08.577Z,88.94
2022-12-03T21:56:35.779Z,88.43
2022-12-03T21:59:02.885Z,88.74
2022-12-03T22:01:30.325Z,88.49
2022-12-03T22:03:58.221Z,88.81
2022-12-03T22:06:25.322Z,88.67
2022-12-03T22:08:52.624Z,88.41
2022-12-03T22:11:24.439Z,88.20
2022-12-03T22:13:51.740Z,88.36
2022-12-03T22:16:21.595Z,88.26
2022-12-03T22:18:49.289Z,88.64
2022-12-03T22:21:19.942Z,88.52
2022-12-03T22:23:47.107Z,89.03
2022-12-03T22:26:19.187Z,88.75
2022-12-03T22:28:48.864Z,88.84
2022-12-03T22:31:17.837Z,89.04
2022-12-03T22:33:48.143Z,89.27
2022-12-03T22:36:20.465Z,88.78
2022-12-03T22:38:49.646Z,89.99
2022-12-03T22:41:17.661Z,88.18
2022-12-03T22:43:46.180Z,88.93
2022-12-03T22:46:14.505Z,88.98
2022-12-03T22:48:43.813Z,88.80
2022-12-03T22:51:20.099Z,88.31
2022-12-03T22:53:47.836Z,88.42
2022-12-03T22:56:15.915Z,89.04
2022-12-03T22:58:43.040Z,88.83
2022-12-03T23:01:10.151Z,89.39
2022-12-03T23:03:37.573Z,89.81
2022-12-03T23:06:12.545Z,89.27
2022-12-03T23:08:39.854Z,88.83
2022-12-03T23:11:07.366Z,88.87
2022-12-03T23:13:35.247Z,88.70
2022-12-03T23:16:03.311Z,89.08
2022-12-03T23:18:30.518Z,88.64
2022-12-03T23:20:57.872Z,88.37
2022-12-03T23:23:27.454Z,89.15
2022-12-03T23:26:09.075Z,89.05
2022-12-03T23:28:40.688Z,89.06
2022-12-03T23:31:18.253Z,88.12
2022-12-03T23:33:45.802Z,88.60
2022-12-03T23:36:13.230Z,89.55
2022-12-03T23:38:40.911Z,88.96
2022-12-03T23:41:12.252Z,89.32
2022-12-03T23:43:40.929Z,90.65
2022-12-03T23:46:12.074Z,89.73
2022-12-03T23:48:39.641Z,88.98
2022-12-03T23:51:10.041Z,89.55
2022-12-03T23:53:38.562Z,88.89
2022-12-03T23:56:12.899Z,89.88
2022-12-03T23:58:40.076Z,89.02
